sensor_id;sensor_type;location;lat;lon;timestamp;temperature;humidity
44517;DHT22;30223;17.182;-96.766;2023-05-07T00:00:36;29.80;54.70
44517;DHT22;30223;17.182;-96.766;2023-05-07T00:03:03;29.70;54.60
44517;DHT22;30223;17.182;-96.766;2023-05-07T00:05:30;29.70;54.70
44517;DHT22;30223;17.182;-96.766;2023-05-07T00:07:56;29.70;54.70
44517;DHT22;30223;17.182;-96.766;2023-05-07T00:10:23;29.70;54.70
44517;DHT22;30223;17.182;-96.766;2023-05-07T00:12:51;29.70;54.70
44517;DHT22;30223;17.182;-96.766;2023-05-07T00:15:18;29.70;54.70
44517;DHT22;30223;17.182;-96.766;2023-05-07T00:17:44;29.70;55.40
44517;DHT22;30223;17.182;-96.766;2023-05-07T00:20:11;29.70;54.80
44517;DHT22;30223;17.182;-96.766;2023-05-07T00:22:38;29.60;54.70
44517;DHT22;30223;17.182;-96.766;2023-05-07T00:25:05;29.60;54.80
44517;DHT22;30223;17.182;-96.766;2023-05-07T00:27:32;29.60;54.80
44517;DHT22;30223;17.182;-96.766;2023-05-07T00:29:59;29.60;54.80
44517;DHT22;30223;17.182;-96.766;2023-05-07T00:32:26;29.60;54.80
44517;DHT22;30223;17.182;-96.766;2023-05-07T00:34:52;29.60;54.80
44517;DHT22;30223;17.182;-96.766;2023-05-07T00:37:19;29.60;54.90
44517;DHT22;30223;17.182;-96.766;2023-05-07T00:39:46;29.60;54.90
44517;DHT22;30223;17.182;-96.766;2023-05-07T00:42:12;29.50;54.90
44517;DHT22;30223;17.182;-96.766;2023-05-07T00:44:41;29.50;54.90
44517;DHT22;30223;17.182;-96.766;2023-05-07T00:47:08;29.50;54.90
44517;DHT22;30223;17.182;-96.766;2023-05-07T00:49:44;29.50;54.90
44517;DHT22;30223;17.182;-96.766;2023-05-07T00:52:16;29.50;54.90
44517;DHT22;30223;17.182;-96.766;2023-05-07T00:54:43;29.50;54.90
44517;DHT22;30223;17.182;-96.766;2023-05-07T00:57:11;29.50;54.90
44517;DHT22;30223;17.182;-96.766;2023-05-07T00:59:38;29.50;55.00
44517;DHT22;30223;17.182;-96.766;2023-05-07T01:02:05;29.50;55.60
44517;DHT22;30223;17.182;-96.766;2023-05-07T01:04:32;29.50;55.00
44517;DHT22;30223;17.182;-96.766;2023-05-07T01:06:59;29.40;55.00
44517;DHT22;30223;17.182;-96.766;2023-05-07T01:09:28;29.40;55.00
44517;DHT22;30223;17.182;-96.766;2023-05-07T01:11:56;29.40;55.00
44517;DHT22;30223;17.182;-96.766;2023-05-07T01:14:23;29.40;55.00
44517;DHT22;30223;17.182;-96.766;2023-05-07T01:16:52;29.40;55.00
44517;DHT22;30223;17.182;-96.766;2023-05-07T01:19:20;29.40;55.00
44517;DHT22;30223;17.182;-96.766;2023-05-07T01:21:48;29.40;55.00
44517;DHT22;30223;17.182;-96.766;2023-05-07T01:24:15;29.30;54.90
44517;DHT22;30223;17.182;-96.766;2023-05-07T01:26:43;29.40;55.00
44517;DHT22;30223;17.182;-96.766;2023-05-07T01:29:13;29.30;54.90
44517;DHT22;30223;17.182;-96.766;2023-05-07T01:31:41;29.30;54.90
44517;DHT22;30223;17.182;-96.766;2023-05-07T01:34:11;29.30;54.90
44517;DHT22;30223;17.182;-96.766;2023-05-07T01:36:39;29.30;54.90
44517;DHT22;30223;17.182;-96.766;2023-05-07T01:39:08;29.30;54.90
44517;DHT22;30223;17.182;-96.766;2023-05-07T01:41:36;29.30;55.00
44517;DHT22;30223;17.182;-96.766;2023-05-07T01:44:03;29.30;54.90
44517;DHT22;30223;17.182;-96.766;2023-05-07T01:46:32;29.30;55.60
44517;DHT22;30223;17.182;-96.766;2023-05-07T01:48:59;29.20;54.90
44517;DHT22;30223;17.182;-96.766;2023-05-07T01:51:26;29.20;54.90
44517;DHT22;30223;17.182;-96.766;2023-05-07T01:53:53;29.20;54.90
44517;DHT22;30223;17.182;-96.766;2023-05-07T01:56:20;29.20;54.90
44517;DHT22;30223;17.182;-96.766;2023-05-07T01:58:47;29.20;54.90
44517;DHT22;30223;17.182;-96.766;2023-05-07T02:01:14;29.20;54.90
44517;DHT22;30223;17.182;-96.766;2023-05-07T02:03:41;29.20;54.90
44517;DHT22;30223;17.182;-96.766;2023-05-07T02:06:08;29.10;54.80
44517;DHT22;30223;17.182;-96.766;2023-05-07T02:08:34;29.10;54.80
44517;DHT22;30223;17.182;-96.766;2023-05-07T02:11:01;29.10;54.80
44517;DHT22;30223;17.182;-96.766;2023-05-07T02:13:32;29.10;54.80
44517;DHT22;30223;17.182;-96.766;2023-05-07T02:15:59;29.10;54.80
44517;DHT22;30223;17.182;-96.766;2023-05-07T02:18:26;29.10;54.80
44517;DHT22;30223;17.182;-96.766;2023-05-07T02:20:53;29.10;54.80
44517;DHT22;30223;17.182;-96.766;2023-05-07T02:23:19;29.10;54.80
44517;DHT22;30223;17.182;-96.766;2023-05-07T02:25:46;29.10;54.80
44517;DHT22;30223;17.182;-96.766;2023-05-07T02:28:13;29.00;54.70
44517;DHT22;30223;17.182;-96.766;2023-05-07T02:30:40;29.00;54.70
44517;DHT22;30223;17.182;-96.766;2023-05-07T02:33:07;29.00;54.70
44517;DHT22;30223;17.182;-96.766;2023-05-07T02:35:34;29.00;54.70
44517;DHT22;30223;17.182;-96.766;2023-05-07T02:38:01;29.00;54.70
44517;DHT22;30223;17.182;-96.766;2023-05-07T02:40:28;29.00;54.70
44517;DHT22;30223;17.182;-96.766;2023-05-07T02:42:55;29.00;54.70
44517;DHT22;30223;17.182;-96.766;2023-05-07T02:45:22;29.00;54.60
44517;DHT22;30223;17.182;-96.766;2023-05-07T02:47:49;29.00;54.60
44517;DHT22;30223;17.182;-96.766;2023-05-07T02:50:24;28.90;54.60
44517;DHT22;30223;17.182;-96.766;2023-05-07T02:52:52;28.90;54.60
44517;DHT22;30223;17.182;-96.766;2023-05-07T02:55:19;28.90;54.60
44517;DHT22;30223;17.182;-96.766;2023-05-07T02:57:46;28.90;55.10
44517;DHT22;30223;17.182;-96.766;2023-05-07T03:00:17;28.90;54.50
44517;DHT22;30223;17.182;-96.766;2023-05-07T03:02:45;28.80;54.60
44517;DHT22;30223;17.182;-96.766;2023-05-07T03:05:11;28.90;55.20
44517;DHT22;30223;17.182;-96.766;2023-05-07T03:07:39;28.90;54.50
44517;DHT22;30223;17.182;-96.766;2023-05-07T03:10:07;28.80;54.40
44517;DHT22;30223;17.182;-96.766;2023-05-07T03:12:34;28.80;54.40
44517;DHT22;30223;17.182;-96.766;2023-05-07T03:15:00;28.80;54.40
44517;DHT22;30223;17.182;-96.766;2023-05-07T03:17:27;28.80;54.40
44517;DHT22;30223;17.182;-96.766;2023-05-07T03:19:54;28.80;54.40
44517;DHT22;30223;17.182;-96.766;2023-05-07T03:22:21;28.80;54.40
44517;DHT22;30223;17.182;-96.766;2023-05-07T03:24:47;28.80;54.40
44517;DHT22;30223;17.182;-96.766;2023-05-07T03:27:14;28.80;54.40
44517;DHT22;30223;17.182;-96.766;2023-05-07T03:29:41;28.70;54.30
44517;DHT22;30223;17.182;-96.766;2023-05-07T03:32:07;28.70;54.30
44517;DHT22;30223;17.182;-96.766;2023-05-07T03:34:34;28.80;54.40
44517;DHT22;30223;17.182;-96.766;2023-05-07T03:37:01;28.70;54.30
44517;DHT22;30223;17.182;-96.766;2023-05-07T03:39:27;28.70;54.20
44517;DHT22;30223;17.182;-96.766;2023-05-07T03:41:54;28.70;54.20
44517;DHT22;30223;17.182;-96.766;2023-05-07T03:44:21;28.70;54.20
44517;DHT22;30223;17.182;-96.766;2023-05-07T03:46:48;28.70;54.20
44517;DHT22;30223;17.182;-96.766;2023-05-07T03:49:14;28.70;54.20
44517;DHT22;30223;17.182;-96.766;2023-05-07T03:51:41;28.60;54.10
44517;DHT22;30223;17.182;-96.766;2023-05-07T03:54:08;28.60;54.10
44517;DHT22;30223;17.182;-96.766;2023-05-07T03:56:35;28.60;54.10
44517;DHT22;30223;17.182;-96.766;2023-05-07T03:59:01;28.60;54.10
44517;DHT22;30223;17.182;-96.766;2023-05-07T04:01:28;28.60;54.10
44517;DHT22;30223;17.182;-96.766;2023-05-07T04:03:55;28.50;54.00
44517;DHT22;30223;17.182;-96.766;2023-05-07T04:06:22;28.60;54.10
44517;DHT22;30223;17.182;-96.766;2023-05-07T04:08:49;28.60;54.00
44517;DHT22;30223;17.182;-96.766;2023-05-07T04:11:16;28.50;54.00
44517;DHT22;30223;17.182;-96.766;2023-05-07T04:13:42;28.50;54.00
44517;DHT22;30223;17.182;-96.766;2023-05-07T04:16:09;28.50;54.00
44517;DHT22;30223;17.182;-96.766;2023-05-07T04:18:36;28.50;54.00
44517;DHT22;30223;17.182;-96.766;2023-05-07T04:21:03;28.50;54.00
44517;DHT22;30223;17.182;-96.766;2023-05-07T04:23:29;28.40;53.80
44517;DHT22;30223;17.182;-96.766;2023-05-07T04:25:56;28.40;53.90
44517;DHT22;30223;17.182;-96.766;2023-05-07T04:28:24;28.40;53.80
44517;DHT22;30223;17.182;-96.766;2023-05-07T04:30:50;28.40;53.90
44517;DHT22;30223;17.182;-96.766;2023-05-07T04:33:17;28.40;53.80
44517;DHT22;30223;17.182;-96.766;2023-05-07T04:35:44;28.40;53.90
44517;DHT22;30223;17.182;-96.766;2023-05-07T04:38:11;28.40;53.80
44517;DHT22;30223;17.182;-96.766;2023-05-07T04:40:37;28.30;53.70
44517;DHT22;30223;17.182;-96.766;2023-05-07T04:43:05;28.30;53.70
44517;DHT22;30223;17.182;-96.766;2023-05-07T04:45:32;28.30;53.70
44517;DHT22;30223;17.182;-96.766;2023-05-07T04:47:59;28.30;53.70
44517;DHT22;30223;17.182;-96.766;2023-05-07T04:50:25;28.30;53.70
44517;DHT22;30223;17.182;-96.766;2023-05-07T04:52:52;28.30;53.60
44517;DHT22;30223;17.182;-96.766;2023-05-07T04:55:19;28.20;53.60
44517;DHT22;30223;17.182;-96.766;2023-05-07T04:57:46;28.30;53.60
44517;DHT22;30223;17.182;-96.766;2023-05-07T05:00:13;28.20;53.50
44517;DHT22;30223;17.182;-96.766;2023-05-07T05:02:46;28.20;53.50
44517;DHT22;30223;17.182;-96.766;2023-05-07T05:05:12;28.20;53.50
44517;DHT22;30223;17.182;-96.766;2023-05-07T05:07:39;28.20;53.50
44517;DHT22;30223;17.182;-96.766;2023-05-07T05:10:09;28.20;53.50
44517;DHT22;30223;17.182;-96.766;2023-05-07T05:12:35;28.20;53.50
44517;DHT22;30223;17.182;-96.766;2023-05-07T05:15:02;28.20;53.50
44517;DHT22;30223;17.182;-96.766;2023-05-07T05:17:29;28.20;53.50
44517;DHT22;30223;17.182;-96.766;2023-05-07T05:19:56;28.10;53.40
44517;DHT22;30223;17.182;-96.766;2023-05-07T05:22:22;28.10;53.40
44517;DHT22;30223;17.182;-96.766;2023-05-07T05:24:52;28.10;53.50
44517;DHT22;30223;17.182;-96.766;2023-05-07T05:27:19;28.10;53.40
44517;DHT22;30223;17.182;-96.766;2023-05-07T05:29:46;28.10;53.40
44517;DHT22;30223;17.182;-96.766;2023-05-07T05:32:12;28.10;53.40
44517;DHT22;30223;17.182;-96.766;2023-05-07T05:34:39;28.00;53.30
44517;DHT22;30223;17.182;-96.766;2023-05-07T05:37:06;28.00;53.30
44517;DHT22;30223;17.182;-96.766;2023-05-07T05:39:33;28.00;53.30
44517;DHT22;30223;17.182;-96.766;2023-05-07T05:41:59;28.00;53.30
44517;DHT22;30223;17.182;-96.766;2023-05-07T05:44:26;28.00;53.30
44517;DHT22;30223;17.182;-96.766;2023-05-07T05:46:53;28.00;53.20
44517;DHT22;30223;17.182;-96.766;2023-05-07T05:49:21;28.00;53.20
44517;DHT22;30223;17.182;-96.766;2023-05-07T05:51:48;28.00;53.20
44517;DHT22;30223;17.182;-96.766;2023-05-07T05:54:14;28.00;53.20
44517;DHT22;30223;17.182;-96.766;2023-05-07T05:56:42;27.90;53.10
44517;DHT22;30223;17.182;-96.766;2023-05-07T05:59:09;27.90;53.10
44517;DHT22;30223;17.182;-96.766;2023-05-07T06:01:35;27.90;53.10
44517;DHT22;30223;17.182;-96.766;2023-05-07T06:04:02;27.90;53.10
44517;DHT22;30223;17.182;-96.766;2023-05-07T06:06:29;27.90;53.00
44517;DHT22;30223;17.182;-96.766;2023-05-07T06:08:57;27.80;53.00
44517;DHT22;30223;17.182;-96.766;2023-05-07T06:11:24;27.90;53.00
44517;DHT22;30223;17.182;-96.766;2023-05-07T06:13:51;27.80;53.00
44517;DHT22;30223;17.182;-96.766;2023-05-07T06:16:18;27.80;52.90
44517;DHT22;30223;17.182;-96.766;2023-05-07T06:18:44;27.80;52.90
44517;DHT22;30223;17.182;-96.766;2023-05-07T06:21:13;27.80;52.90
44517;DHT22;30223;17.182;-96.766;2023-05-07T06:23:41;27.70;52.80
44517;DHT22;30223;17.182;-96.766;2023-05-07T06:26:08;27.70;52.80
44517;DHT22;30223;17.182;-96.766;2023-05-07T06:28:34;27.70;52.80
44517;DHT22;30223;17.182;-96.766;2023-05-07T06:31:17;27.70;52.80
44517;DHT22;30223;17.182;-96.766;2023-05-07T06:33:46;27.70;52.80
44517;DHT22;30223;17.182;-96.766;2023-05-07T06:36:13;27.70;53.10
44517;DHT22;30223;17.182;-96.766;2023-05-07T06:38:40;27.70;52.80
44517;DHT22;30223;17.182;-96.766;2023-05-07T06:41:07;27.60;52.70
44517;DHT22;30223;17.182;-96.766;2023-05-07T06:43:33;27.60;52.80
44517;DHT22;30223;17.182;-96.766;2023-05-07T06:46:00;27.60;52.70
44517;DHT22;30223;17.182;-96.766;2023-05-07T06:48:27;27.60;52.70
44517;DHT22;30223;17.182;-96.766;2023-05-07T06:50:54;27.60;52.70
44517;DHT22;30223;17.182;-96.766;2023-05-07T06:53:21;27.60;52.70
44517;DHT22;30223;17.182;-96.766;2023-05-07T06:55:48;27.50;52.60
44517;DHT22;30223;17.182;-96.766;2023-05-07T06:58:15;27.50;52.60
44517;DHT22;30223;17.182;-96.766;2023-05-07T07:00:42;27.50;52.60
44517;DHT22;30223;17.182;-96.766;2023-05-07T07:03:08;27.50;52.60
44517;DHT22;30223;17.182;-96.766;2023-05-07T07:05:35;27.50;52.70
44517;DHT22;30223;17.182;-96.766;2023-05-07T07:08:02;27.50;52.60
44517;DHT22;30223;17.182;-96.766;2023-05-07T07:10:29;27.40;52.60
44517;DHT22;30223;17.182;-96.766;2023-05-07T07:12:56;27.40;52.50
44517;DHT22;30223;17.182;-96.766;2023-05-07T07:15:22;27.40;52.50
44517;DHT22;30223;17.182;-96.766;2023-05-07T07:17:51;27.40;52.50
44517;DHT22;30223;17.182;-96.766;2023-05-07T07:20:18;27.40;52.50
44517;DHT22;30223;17.182;-96.766;2023-05-07T07:22:44;27.40;52.50
44517;DHT22;30223;17.182;-96.766;2023-05-07T07:25:11;27.40;52.50
44517;DHT22;30223;17.182;-96.766;2023-05-07T07:27:38;27.40;52.50
44517;DHT22;30223;17.182;-96.766;2023-05-07T07:30:07;27.30;52.50
44517;DHT22;30223;17.182;-96.766;2023-05-07T07:32:35;27.30;52.50
44517;DHT22;30223;17.182;-96.766;2023-05-07T07:35:01;27.30;53.10
44517;DHT22;30223;17.182;-96.766;2023-05-07T07:37:28;27.30;52.50
44517;DHT22;30223;17.182;-96.766;2023-05-07T07:39:55;27.30;52.40
44517;DHT22;30223;17.182;-96.766;2023-05-07T07:42:22;27.30;52.50
44517;DHT22;30223;17.182;-96.766;2023-05-07T07:44:49;27.20;52.30
44517;DHT22;30223;17.182;-96.766;2023-05-07T07:47:16;27.20;52.30
44517;DHT22;30223;17.182;-96.766;2023-05-07T07:49:42;27.20;52.30
44517;DHT22;30223;17.182;-96.766;2023-05-07T07:52:09;27.20;52.30
44517;DHT22;30223;17.182;-96.766;2023-05-07T07:54:36;27.20;52.30
44517;DHT22;30223;17.182;-96.766;2023-05-07T07:57:05;27.20;52.30
44517;DHT22;30223;17.182;-96.766;2023-05-07T07:59:32;27.10;52.20
44517;DHT22;30223;17.182;-96.766;2023-05-07T08:01:58;27.10;52.20
44517;DHT22;30223;17.182;-96.766;2023-05-07T08:04:25;27.10;52.20
44517;DHT22;30223;17.182;-96.766;2023-05-07T08:06:52;27.10;52.20
44517;DHT22;30223;17.182;-96.766;2023-05-07T08:09:20;27.10;52.20
44517;DHT22;30223;17.182;-96.766;2023-05-07T08:11:47;27.10;52.20
44517;DHT22;30223;17.182;-96.766;2023-05-07T08:14:13;27.00;52.10
44517;DHT22;30223;17.182;-96.766;2023-05-07T08:16:42;27.00;52.10
44517;DHT22;30223;17.182;-96.766;2023-05-07T08:19:11;27.00;52.10
44517;DHT22;30223;17.182;-96.766;2023-05-07T08:21:40;27.00;52.10
44517;DHT22;30223;17.182;-96.766;2023-05-07T08:24:07;27.00;52.10
44517;DHT22;30223;17.182;-96.766;2023-05-07T08:26:34;27.00;52.10
44517;DHT22;30223;17.182;-96.766;2023-05-07T08:29:02;27.00;52.10
44517;DHT22;30223;17.182;-96.766;2023-05-07T08:31:28;27.00;52.00
44517;DHT22;30223;17.182;-96.766;2023-05-07T08:33:55;26.90;51.90
44517;DHT22;30223;17.182;-96.766;2023-05-07T08:36:22;26.90;51.90
44517;DHT22;30223;17.182;-96.766;2023-05-07T08:38:51;26.90;52.00
44517;DHT22;30223;17.182;-96.766;2023-05-07T08:41:18;26.90;52.00
44517;DHT22;30223;17.182;-96.766;2023-05-07T08:43:49;26.90;52.00
44517;DHT22;30223;17.182;-96.766;2023-05-07T08:46:21;26.90;51.90
44517;DHT22;30223;17.182;-96.766;2023-05-07T08:48:52;26.80;51.90
44517;DHT22;30223;17.182;-96.766;2023-05-07T08:51:20;26.80;51.90
44517;DHT22;30223;17.182;-96.766;2023-05-07T08:53:49;26.80;51.90
44517;DHT22;30223;17.182;-96.766;2023-05-07T08:56:17;26.80;51.80
44517;DHT22;30223;17.182;-96.766;2023-05-07T08:58:46;26.70;51.80
44517;DHT22;30223;17.182;-96.766;2023-05-07T09:01:16;26.80;51.80
44517;DHT22;30223;17.182;-96.766;2023-05-07T09:03:47;26.70;51.80
44517;DHT22;30223;17.182;-96.766;2023-05-07T09:06:14;26.70;51.80
44517;DHT22;30223;17.182;-96.766;2023-05-07T09:08:43;26.70;51.80
44517;DHT22;30223;17.182;-96.766;2023-05-07T09:11:10;26.70;51.80
44517;DHT22;30223;17.182;-96.766;2023-05-07T09:13:38;26.70;51.80
44517;DHT22;30223;17.182;-96.766;2023-05-07T09:16:12;26.60;51.70
44517;DHT22;30223;17.182;-96.766;2023-05-07T09:18:42;26.60;51.70
44517;DHT22;30223;17.182;-96.766;2023-05-07T09:21:16;26.60;51.70
44517;DHT22;30223;17.182;-96.766;2023-05-07T09:23:43;26.60;51.70
44517;DHT22;30223;17.182;-96.766;2023-05-07T09:26:10;26.60;51.70
44517;DHT22;30223;17.182;-96.766;2023-05-07T09:28:40;26.50;51.50
44517;DHT22;30223;17.182;-96.766;2023-05-07T09:31:09;26.50;51.60
44517;DHT22;30223;17.182;-96.766;2023-05-07T09:33:37;26.50;51.70
44517;DHT22;30223;17.182;-96.766;2023-05-07T09:36:08;26.60;51.60
44517;DHT22;30223;17.182;-96.766;2023-05-07T09:38:37;26.50;51.60
44517;DHT22;30223;17.182;-96.766;2023-05-07T09:41:11;26.50;51.60
44517;DHT22;30223;17.182;-96.766;2023-05-07T09:43:39;26.50;51.50
44517;DHT22;30223;17.182;-96.766;2023-05-07T09:46:14;26.40;51.50
44517;DHT22;30223;17.182;-96.766;2023-05-07T09:48:44;26.40;51.50
44517;DHT22;30223;17.182;-96.766;2023-05-07T09:51:29;26.40;51.50
44517;DHT22;30223;17.182;-96.766;2023-05-07T09:53:57;26.40;51.50
44517;DHT22;30223;17.182;-96.766;2023-05-07T09:56:27;26.40;51.50
44517;DHT22;30223;17.182;-96.766;2023-05-07T09:58:54;26.30;51.40
44517;DHT22;30223;17.182;-96.766;2023-05-07T10:01:23;26.40;51.50
44517;DHT22;30223;17.182;-96.766;2023-05-07T10:03:51;26.30;51.40
44517;DHT22;30223;17.182;-96.766;2023-05-07T10:06:20;26.30;51.40
44517;DHT22;30223;17.182;-96.766;2023-05-07T10:08:47;26.30;51.40
44517;DHT22;30223;17.182;-96.766;2023-05-07T10:11:14;26.20;51.30
44517;DHT22;30223;17.182;-96.766;2023-05-07T10:13:42;26.20;51.30
44517;DHT22;30223;17.182;-96.766;2023-05-07T10:16:09;26.20;51.30
44517;DHT22;30223;17.182;-96.766;2023-05-07T10:18:37;26.20;51.30
44517;DHT22;30223;17.182;-96.766;2023-05-07T10:21:10;26.20;51.90
44517;DHT22;30223;17.182;-96.766;2023-05-07T10:23:39;26.20;51.30
44517;DHT22;30223;17.182;-96.766;2023-05-07T10:26:07;26.20;51.30
44517;DHT22;30223;17.182;-96.766;2023-05-07T10:28:44;26.20;51.30
44517;DHT22;30223;17.182;-96.766;2023-05-07T10:34:21;26.10;51.20
44517;DHT22;30223;17.182;-96.766;2023-05-07T10:36:50;26.10;51.20
44517;DHT22;30223;17.182;-96.766;2023-05-07T10:39:20;26.10;51.20
44517;DHT22;30223;17.182;-96.766;2023-05-07T10:41:48;26.10;51.20
44517;DHT22;30223;17.182;-96.766;2023-05-07T10:44:31;26.00;51.10
44517;DHT22;30223;17.182;-96.766;2023-05-07T10:47:11;26.00;51.10
44517;DHT22;30223;17.182;-96.766;2023-05-07T10:52:22;26.00;51.10
44517;DHT22;30223;17.182;-96.766;2023-05-07T10:55:31;25.90;51.10
44517;DHT22;30223;17.182;-96.766;2023-05-07T10:57:39;26.00;51.10
44517;DHT22;30223;17.182;-96.766;2023-05-07T11:05:31;25.90;51.00
44517;DHT22;30223;17.182;-96.766;2023-05-07T11:08:02;25.90;51.00
44517;DHT22;30223;17.182;-96.766;2023-05-07T11:13:15;25.80;50.90
44517;DHT22;30223;17.182;-96.766;2023-05-07T11:15:46;25.80;50.90
44517;DHT22;30223;17.182;-96.766;2023-05-07T11:18:17;25.80;51.50
44517;DHT22;30223;17.182;-96.766;2023-05-07T11:20:45;25.80;50.90
44517;DHT22;30223;17.182;-96.766;2023-05-07T11:26:05;25.70;50.90
44517;DHT22;30223;17.182;-96.766;2023-05-07T11:28:37;25.70;50.90
44517;DHT22;30223;17.182;-96.766;2023-05-07T11:31:05;25.70;51.00
44517;DHT22;30223;17.182;-96.766;2023-05-07T11:33:32;25.70;50.90
44517;DHT22;30223;17.182;-96.766;2023-05-07T11:36:00;25.70;51.50
44517;DHT22;30223;17.182;-96.766;2023-05-07T11:38:27;25.60;50.90
44517;DHT22;30223;17.182;-96.766;2023-05-07T11:40:59;25.60;50.90
44517;DHT22;30223;17.182;-96.766;2023-05-07T11:43:27;25.60;50.90
44517;DHT22;30223;17.182;-96.766;2023-05-07T11:45:54;25.50;50.80
44517;DHT22;30223;17.182;-96.766;2023-05-07T11:48:21;25.50;50.80
44517;DHT22;30223;17.182;-96.766;2023-05-07T11:50:52;25.50;50.90
44517;DHT22;30223;17.182;-96.766;2023-05-07T11:53:20;25.50;50.90
44517;DHT22;30223;17.182;-96.766;2023-05-07T11:55:47;25.50;50.90
44517;DHT22;30223;17.182;-96.766;2023-05-07T11:58:21;25.50;50.90
44517;DHT22;30223;17.182;-96.766;2023-05-07T12:00:53;25.50;51.50
44517;DHT22;30223;17.182;-96.766;2023-05-07T12:03:20;25.40;50.80
44517;DHT22;30223;17.182;-96.766;2023-05-07T12:05:48;25.40;50.80
44517;DHT22;30223;17.182;-96.766;2023-05-07T12:08:19;25.40;50.80
44517;DHT22;30223;17.182;-96.766;2023-05-07T12:10:50;25.40;50.80
44517;DHT22;30223;17.182;-96.766;2023-05-07T12:13:21;25.30;50.80
44517;DHT22;30223;17.182;-96.766;2023-05-07T12:15:55;25.30;50.70
44517;DHT22;30223;17.182;-96.766;2023-05-07T12:18:23;25.30;50.80
44517;DHT22;30223;17.182;-96.766;2023-05-07T12:20:50;25.30;50.80
44517;DHT22;30223;17.182;-96.766;2023-05-07T12:23:17;25.30;50.70
44517;DHT22;30223;17.182;-96.766;2023-05-07T12:25:44;25.20;50.70
44517;DHT22;30223;17.182;-96.766;2023-05-07T12:28:18;25.20;50.70
44517;DHT22;30223;17.182;-96.766;2023-05-07T12:30:47;25.20;50.70
44517;DHT22;30223;17.182;-96.766;2023-05-07T12:33:18;25.20;50.70
44517;DHT22;30223;17.182;-96.766;2023-05-07T12:35:47;25.20;50.70
44517;DHT22;30223;17.182;-96.766;2023-05-07T12:38:16;25.20;50.70
44517;DHT22;30223;17.182;-96.766;2023-05-07T12:40:46;25.20;50.70
44517;DHT22;30223;17.182;-96.766;2023-05-07T12:43:27;25.10;50.60
44517;DHT22;30223;17.182;-96.766;2023-05-07T12:45:56;25.20;50.60
44517;DHT22;30223;17.182;-96.766;2023-05-07T12:48:24;25.10;50.60
44517;DHT22;30223;17.182;-96.766;2023-05-07T12:50:57;25.10;50.60
44517;DHT22;30223;17.182;-96.766;2023-05-07T12:53:26;25.10;50.60
44517;DHT22;30223;17.182;-96.766;2023-05-07T12:55:55;25.10;50.50
44517;DHT22;30223;17.182;-96.766;2023-05-07T13:00:52;25.00;50.50
44517;DHT22;30223;17.182;-96.766;2023-05-07T13:03:25;25.00;50.50
44517;DHT22;30223;17.182;-96.766;2023-05-07T13:05:52;25.00;50.50
44517;DHT22;30223;17.182;-96.766;2023-05-07T13:08:33;25.00;50.40
44517;DHT22;30223;17.182;-96.766;2023-05-07T13:11:01;25.00;50.40
44517;DHT22;30223;17.182;-96.766;2023-05-07T13:13:34;25.00;50.50
44517;DHT22;30223;17.182;-96.766;2023-05-07T13:16:02;25.00;50.50
44517;DHT22;30223;17.182;-96.766;2023-05-07T13:18:32;25.00;50.40
44517;DHT22;30223;17.182;-96.766;2023-05-07T13:21:00;25.00;50.50
44517;DHT22;30223;17.182;-96.766;2023-05-07T13:23:28;24.90;50.40
44517;DHT22;30223;17.182;-96.766;2023-05-07T13:25:55;25.00;50.50
44517;DHT22;30223;17.182;-96.766;2023-05-07T13:28:25;24.90;50.40
44517;DHT22;30223;17.182;-96.766;2023-05-07T13:30:53;24.90;50.40
44517;DHT22;30223;17.182;-96.766;2023-05-07T13:33:20;24.90;50.50
44517;DHT22;30223;17.182;-96.766;2023-05-07T13:35:47;24.90;50.40
44517;DHT22;30223;17.182;-96.766;2023-05-07T13:38:14;24.90;50.40
44517;DHT22;30223;17.182;-96.766;2023-05-07T13:40:41;24.90;50.40
44517;DHT22;30223;17.182;-96.766;2023-05-07T13:43:08;24.80;50.40
44517;DHT22;30223;17.182;-96.766;2023-05-07T13:45:35;24.80;50.40
44517;DHT22;30223;17.182;-96.766;2023-05-07T13:48:02;24.80;50.30
44517;DHT22;30223;17.182;-96.766;2023-05-07T13:50:28;24.80;50.30
44517;DHT22;30223;17.182;-96.766;2023-05-07T13:52:56;24.80;50.40
44517;DHT22;30223;17.182;-96.766;2023-05-07T13:55:24;24.80;50.40
44517;DHT22;30223;17.182;-96.766;2023-05-07T13:58:01;24.80;50.40
44517;DHT22;30223;17.182;-96.766;2023-05-07T14:00:29;24.80;50.40
44517;DHT22;30223;17.182;-96.766;2023-05-07T14:02:56;24.80;50.40
44517;DHT22;30223;17.182;-96.766;2023-05-07T14:05:24;24.80;51.00
44517;DHT22;30223;17.182;-96.766;2023-05-07T14:07:54;24.70;50.40
44517;DHT22;30223;17.182;-96.766;2023-05-07T14:10:21;24.80;50.40
44517;DHT22;30223;17.182;-96.766;2023-05-07T14:12:47;24.80;50.40
44517;DHT22;30223;17.182;-96.766;2023-05-07T14:15:15;24.70;50.40
44517;DHT22;30223;17.182;-96.766;2023-05-07T14:17:42;24.80;50.40
44517;DHT22;30223;17.182;-96.766;2023-05-07T14:20:10;24.70;50.50
44517;DHT22;30223;17.182;-96.766;2023-05-07T14:22:37;24.70;50.40
44517;DHT22;30223;17.182;-96.766;2023-05-07T14:25:04;24.80;50.40
44517;DHT22;30223;17.182;-96.766;2023-05-07T14:27:31;24.70;50.40
44517;DHT22;30223;17.182;-96.766;2023-05-07T14:29:57;24.70;50.40
44517;DHT22;30223;17.182;-96.766;2023-05-07T14:32:24;24.70;50.50
44517;DHT22;30223;17.182;-96.766;2023-05-07T14:34:51;24.70;50.50
44517;DHT22;30223;17.182;-96.766;2023-05-07T14:37:17;24.70;50.50
44517;DHT22;30223;17.182;-96.766;2023-05-07T14:39:45;24.70;50.50
44517;DHT22;30223;17.182;-96.766;2023-05-07T14:42:12;24.60;50.50
44517;DHT22;30223;17.182;-96.766;2023-05-07T14:44:39;24.70;50.60
44517;DHT22;30223;17.182;-96.766;2023-05-07T14:47:07;24.60;50.50
44517;DHT22;30223;17.182;-96.766;2023-05-07T14:49:34;24.70;50.60
44517;DHT22;30223;17.182;-96.766;2023-05-07T14:52:01;24.70;50.60
44517;DHT22;30223;17.182;-96.766;2023-05-07T14:54:28;24.60;50.60
44517;DHT22;30223;17.182;-96.766;2023-05-07T14:56:55;24.70;50.60
44517;DHT22;30223;17.182;-96.766;2023-05-07T14:59:22;24.70;50.60
44517;DHT22;30223;17.182;-96.766;2023-05-07T15:01:50;24.70;50.60
44517;DHT22;30223;17.182;-96.766;2023-05-07T15:04:17;24.70;50.50
44517;DHT22;30223;17.182;-96.766;2023-05-07T15:06:44;24.70;50.50
44517;DHT22;30223;17.182;-96.766;2023-05-07T15:09:12;24.70;50.50
44517;DHT22;30223;17.182;-96.766;2023-05-07T15:11:39;24.80;50.50
44517;DHT22;30223;17.182;-96.766;2023-05-07T15:14:06;24.80;50.50
44517;DHT22;30223;17.182;-96.766;2023-05-07T15:16:33;24.80;50.50
44517;DHT22;30223;17.182;-96.766;2023-05-07T15:19:00;24.80;50.50
44517;DHT22;30223;17.182;-96.766;2023-05-07T15:21:26;24.80;50.50
44517;DHT22;30223;17.182;-96.766;2023-05-07T15:23:53;24.80;50.50
44517;DHT22;30223;17.182;-96.766;2023-05-07T15:26:20;24.90;50.50